イエローナイフ の空港の天気 - METARとTAF

イエローナイフ空港 ( CYZF / YZF ) - カナダ ノースウエスト準州イエローナイフ
飛行場実況気象(Metar)
観測時間11/14 10:37 MST (11/14 17:37 UTC)
風向・風速北東 6m/s 瞬間風速8m/s
視程10km以上
天気現象低い地吹雪
全天の8割程度の雲 雲底高度 400m
全天を覆う雲 雲底高度 5180m
気温-14℃
湿度78%
気圧1018.2hPa
METARCYZF 141737Z 05011G16KT 15SM DRSN BKN013 OVC170 M14/M17 A3000 RMK SC5AC3 SLP182
過去の天気等 Google飛行場航空写真 Wunderground天気予報

過去48時間のMETAR

飛行場予報(TAF)
発表時間: 11/14 08:01 MST (11/14 15:01 UTC)
予報対象時間: 14日8時 MST ~ 15日5時 MST
風向・風速北東 6m/s
視程10km以上
天気現象弱い雪
全天を覆う雲 雲底高度 1520m
14日8時 MST ~ 14日14時 MST に一時的に
視程3220m
天気現象弱いしゅう雪
全天を覆う雲 雲底高度 460m
14日14時 MST から
風向・風速東北東 8m/s 瞬間風速 13m/s
視程10km以上
全天の4割程度の雲 雲底高度 610m
全天を覆う雲 雲底高度 3050m
14日17時 MST ~ 14日19時 MST に徐々に
風向・風速東北東 5m/s
TAF AMD CYZF 141501Z 1415/1512 04012KT 6SM -SN OVC050
TEMPO 1415/1421 2SM -SHSN OVC015
FM142100 06015G25KT P6SM SCT020 OVC100
BECMG 1500/1502 07010KT RMK NXT FCST BY 141800Z